sensor_id;sensor_type;location;lat;lon;timestamp;pressure;altitude;pressure_sealevel;temperature;humidity
69318;BME280;56457;52.190;4.440;2023-03-12T00:00:39;101154.06;;;4.31;100.00
69318;BME280;56457;52.190;4.440;2023-03-12T00:01:40;101150.50;;;4.28;100.00
69318;BME280;56457;52.190;4.440;2023-03-12T00:02:40;101152.19;;;4.24;100.00
69318;BME280;56457;52.190;4.440;2023-03-12T00:03:40;101153.91;;;4.25;100.00
69318;BME280;56457;52.190;4.440;2023-03-12T00:04:40;101164.34;;;4.27;100.00
69318;BME280;56457;52.190;4.440;2023-03-12T00:05:41;101156.56;;;4.28;100.00
69318;BME280;56457;52.190;4.440;2023-03-12T00:06:42;101157.41;;;4.27;100.00
69318;BME280;56457;52.190;4.440;2023-03-12T00:07:42;101164.44;;;4.30;100.00
69318;BME280;56457;52.190;4.440;2023-03-12T00:08:43;101159.22;;;4.30;100.00
69318;BME280;56457;52.190;4.440;2023-03-12T00:09:43;101147.97;;;4.29;100.00
69318;BME280;56457;52.190;4.440;2023-03-12T00:10:44;101151.31;;;4.25;100.00
69318;BME280;56457;52.190;4.440;2023-03-12T00:11:45;101151.38;;;4.28;100.00
69318;BME280;56457;52.190;4.440;2023-03-12T00:16:06;101129.78;;;4.29;100.00
69318;BME280;56457;52.190;4.440;2023-03-12T00:17:07;101136.69;;;4.29;100.00
69318;BME280;56457;52.190;4.440;2023-03-12T00:18:07;101129.78;;;4.29;100.00
69318;BME280;56457;52.190;4.440;2023-03-12T00:19:08;101124.44;;;4.23;100.00
69318;BME280;56457;52.190;4.440;2023-03-12T00:20:10;101119.28;;;4.25;100.00
69318;BME280;56457;52.190;4.440;2023-03-12T00:21:11;101123.59;;;4.24;100.00
69318;BME280;56457;52.190;4.440;2023-03-12T00:22:11;101124.41;;;4.22;100.00
69318;BME280;56457;52.190;4.440;2023-03-12T00:23:11;101117.38;;;4.16;100.00
69318;BME280;56457;52.190;4.440;2023-03-12T00:24:12;101112.94;;;4.12;100.00
69318;BME280;56457;52.190;4.440;2023-03-12T00:25:13;101103.44;;;4.14;100.00
69318;BME280;56457;52.190;4.440;2023-03-12T00:26:14;101112.09;;;4.13;100.00
69318;BME280;56457;52.190;4.440;2023-03-12T00:27:14;101108.59;;;4.11;100.00
69318;BME280;56457;52.190;4.440;2023-03-12T00:28:14;101119.84;;;4.12;100.00
69318;BME280;56457;52.190;4.440;2023-03-12T00:29:15;101112.81;;;4.06;100.00
69318;BME280;56457;52.190;4.440;2023-03-12T00:30:15;101109.34;;;4.07;100.00
69318;BME280;56457;52.190;4.440;2023-03-12T00:32:16;101111.94;;;4.05;100.00
69318;BME280;56457;52.190;4.440;2023-03-12T00:33:16;101113.53;;;4.00;100.00
69318;BME280;56457;52.190;4.440;2023-03-12T00:34:17;101117.88;;;4.01;100.00
69318;BME280;56457;52.190;4.440;2023-03-12T00:35:17;101108.41;;;4.03;100.00
69318;BME280;56457;52.190;4.440;2023-03-12T00:36:18;101105.78;;;4.02;100.00
69318;BME280;56457;52.190;4.440;2023-03-12T00:37:18;101110.84;;;3.97;100.00
69318;BME280;56457;52.190;4.440;2023-03-12T00:38:19;101102.16;;;3.95;100.00
69318;BME280;56457;52.190;4.440;2023-03-12T00:39:19;101105.59;;;3.94;100.00
69318;BME280;56457;52.190;4.440;2023-03-12T00:40:19;101111.63;;;3.93;100.00
69318;BME280;56457;52.190;4.440;2023-03-12T00:41:20;101106.41;;;3.92;100.00
69318;BME280;56457;52.190;4.440;2023-03-12T00:42:21;101107.28;;;3.92;100.00
69318;BME280;56457;52.190;4.440;2023-03-12T00:43:21;101104.69;;;3.92;100.00
69318;BME280;56457;52.190;4.440;2023-03-12T00:44:21;101102.94;;;3.91;100.00
69318;BME280;56457;52.190;4.440;2023-03-12T00:45:22;101108.22;;;3.96;100.00
69318;BME280;56457;52.190;4.440;2023-03-12T00:46:22;101103.84;;;3.93;100.00
69318;BME280;56457;52.190;4.440;2023-03-12T00:47:22;101104.72;;;3.94;100.00
69318;BME280;56457;52.190;4.440;2023-03-12T00:48:22;101106.47;;;3.95;100.00
69318;BME280;56457;52.190;4.440;2023-03-12T00:49:25;101099.53;;;3.94;100.00
69318;BME280;56457;52.190;4.440;2023-03-12T00:50:25;101096.84;;;3.91;100.00
69318;BME280;56457;52.190;4.440;2023-03-12T00:51:26;101089.06;;;3.91;100.00
69318;BME280;56457;52.190;4.440;2023-03-12T00:52:26;101091.72;;;3.92;100.00
69318;BME280;56457;52.190;4.440;2023-03-12T00:53:26;101102.09;;;3.92;100.00
69318;BME280;56457;52.190;4.440;2023-03-12T00:54:26;101099.53;;;3.94;100.00
69318;BME280;56457;52.190;4.440;2023-03-12T00:55:27;101106.47;;;3.95;100.00
69318;BME280;56457;52.190;4.440;2023-03-12T00:56:27;101107.28;;;3.92;100.00
69318;BME280;56457;52.190;4.440;2023-03-12T00:57:27;101102.97;;;3.93;100.00
69318;BME280;56457;52.190;4.440;2023-03-12T00:58:28;101113.38;;;3.94;100.00
69318;BME280;56457;52.190;4.440;2023-03-12T00:59:28;101109.03;;;3.93;100.00
69318;BME280;56457;52.190;4.440;2023-03-12T01:00:28;101109.94;;;3.95;100.00
69318;BME280;56457;52.190;4.440;2023-03-12T01:01:29;101106.47;;;3.95;100.00
69318;BME280;56457;52.190;4.440;2023-03-12T01:02:29;101111.66;;;3.95;100.00
69318;BME280;56457;52.190;4.440;2023-03-12T01:03:29;101112.63;;;3.98;100.00
69318;BME280;56457;52.190;4.440;2023-03-12T01:04:30;101116.84;;;3.95;100.00
69318;BME280;56457;52.190;4.440;2023-03-12T01:05:30;101119.47;;;3.95;100.00
69318;BME280;56457;52.190;4.440;2023-03-12T01:06:33;101117.84;;;4.00;100.00
69318;BME280;56457;52.190;4.440;2023-03-12T01:07:34;101115.25;;;4.00;100.00
69318;BME280;56457;52.190;4.440;2023-03-12T01:08:34;101107.44;;;3.98;100.00
69318;BME280;56457;52.190;4.440;2023-03-12T01:09:35;101107.47;;;4.00;100.00
69318;BME280;56457;52.190;4.440;2023-03-12T01:10:36;101099.69;;;4.00;100.00
69318;BME280;56457;52.190;4.440;2023-03-12T01:11:37;101094.47;;;4.00;100.00
69318;BME280;56457;52.190;4.440;2023-03-12T01:12:37;101101.44;;;4.02;100.00
69318;BME280;56457;52.190;4.440;2023-03-12T01:13:37;101104.72;;;3.94;100.00
69318;BME280;56457;52.190;4.440;2023-03-12T01:14:38;101101.28;;;3.95;100.00
69318;BME280;56457;52.190;4.440;2023-03-12T01:15:38;101093.38;;;3.90;100.00
69318;BME280;56457;52.190;4.440;2023-03-12T01:16:38;101097.75;;;3.91;100.00
69318;BME280;56457;52.190;4.440;2023-03-12T01:17:39;101099.53;;;3.94;100.00
69318;BME280;56457;52.190;4.440;2023-03-12T01:18:39;101096.94;;;3.94;100.00
69318;BME280;56457;52.190;4.440;2023-03-12T01:19:39;101094.38;;;3.95;100.00
69318;BME280;56457;52.190;4.440;2023-03-12T01:20:40;101085.69;;;3.93;100.00
69318;BME280;56457;52.190;4.440;2023-03-12T01:21:40;101092.59;;;3.93;100.00
69318;BME280;56457;52.190;4.440;2023-03-12T01:22:40;101086.56;;;3.94;100.00
69318;BME280;56457;52.190;4.440;2023-03-12T01:23:41;101090.00;;;3.93;100.00
69318;BME280;56457;52.190;4.440;2023-03-12T01:24:41;101090.75;;;3.89;100.00
69318;BME280;56457;52.190;4.440;2023-03-12T01:25:41;101086.38;;;3.86;100.00
69318;BME280;56457;52.190;4.440;2023-03-12T01:26:42;101083.72;;;3.85;100.00
69318;BME280;56457;52.190;4.440;2023-03-12T01:27:42;101089.03;;;3.89;100.00
69318;BME280;56457;52.190;4.440;2023-03-12T01:28:43;101086.41;;;3.88;100.00
69318;BME280;56457;52.190;4.440;2023-03-12T01:29:43;101080.47;;;3.92;100.00
69318;BME280;56457;52.190;4.440;2023-03-12T01:30:44;101081.25;;;3.89;100.00
69318;BME280;56457;52.190;4.440;2023-03-12T01:31:44;101082.19;;;3.91;100.00
69318;BME280;56457;52.190;4.440;2023-03-12T01:32:44;101078.75;;;3.94;100.00
69318;BME280;56457;52.190;4.440;2023-03-12T01:33:48;101076.91;;;3.88;100.00
69318;BME280;56457;52.190;4.440;2023-03-12T01:34:49;101070.84;;;3.88;100.00
69318;BME280;56457;52.190;4.440;2023-03-12T01:35:49;101064.88;;;3.92;100.00
69318;BME280;56457;52.190;4.440;2023-03-12T01:36:50;101064.94;;;3.95;100.00
69318;BME280;56457;52.190;4.440;2023-03-12T01:37:50;101058.91;;;3.96;100.00
69318;BME280;56457;52.190;4.440;2023-03-12T01:38:52;101061.50;;;3.96;100.00
69318;BME280;56457;52.190;4.440;2023-03-12T01:39:53;101063.19;;;3.94;100.00
69318;BME280;56457;52.190;4.440;2023-03-12T01:40:53;101061.44;;;3.93;100.00
69318;BME280;56457;52.190;4.440;2023-03-12T01:41:53;101064.94;;;3.95;100.00
69318;BME280;56457;52.190;4.440;2023-03-12T01:42:54;101063.25;;;3.97;100.00
69318;BME280;56457;52.190;4.440;2023-03-12T01:43:55;101070.97;;;3.94;100.00
69318;BME280;56457;52.190;4.440;2023-03-12T01:44:56;101070.09;;;3.93;100.00
69318;BME280;56457;52.190;4.440;2023-03-12T01:52:36;101044.88;;;3.88;100.00
69318;BME280;56457;52.190;4.440;2023-03-12T01:53:37;101041.44;;;3.89;100.00
69318;BME280;56457;52.190;4.440;2023-03-12T01:54:46;101037.97;;;3.88;100.00
69318;BME280;56457;52.190;4.440;2023-03-12T01:55:49;101044.94;;;3.91;100.00
69318;BME280;56457;52.190;4.440;2023-03-12T01:56:50;101039.75;;;3.91;100.00
69318;BME280;56457;52.190;4.440;2023-03-12T01:57:51;101041.47;;;3.90;100.00
69318;BME280;56457;52.190;4.440;2023-03-12T01:58:54;101037.94;;;3.87;100.00
69318;BME280;56457;52.190;4.440;2023-03-12T01:59:56;101031.06;;;3.89;100.00
69318;BME280;56457;52.190;4.440;2023-03-12T02:00:59;101045.00;;;3.92;100.00
69318;BME280;56457;52.190;4.440;2023-03-12T02:01:59;101025.97;;;3.93;100.00
69318;BME280;56457;52.190;4.440;2023-03-12T02:03:01;101028.53;;;3.92;100.00
69318;BME280;56457;52.190;4.440;2023-03-12T02:04:04;101027.69;;;3.91;100.00
69318;BME280;56457;52.190;4.440;2023-03-12T02:05:15;101031.13;;;3.92;100.00
69318;BME280;56457;52.190;4.440;2023-03-12T02:06:20;101024.97;;;3.87;100.00
69318;BME280;56457;52.190;4.440;2023-03-12T02:07:22;101024.88;;;3.84;100.00
69318;BME280;56457;52.190;4.440;2023-03-12T02:08:23;101021.41;;;3.83;100.00
69318;BME280;56457;52.190;4.440;2023-03-12T02:09:23;101012.75;;;3.83;100.00
69318;BME280;56457;52.190;4.440;2023-03-12T02:10:25;101016.19;;;3.82;100.00
69318;BME280;56457;52.190;4.440;2023-03-12T02:11:25;101008.44;;;3.83;100.00
69318;BME280;56457;52.190;4.440;2023-03-12T02:12:25;101003.25;;;3.83;100.00
69318;BME280;56457;52.190;4.440;2023-03-12T02:13:26;101001.50;;;3.82;100.00
69318;BME280;56457;52.190;4.440;2023-03-12T02:14:27;100998.00;;;3.80;100.00
69318;BME280;56457;52.190;4.440;2023-03-12T02:15:27;100991.84;;;3.76;100.00
69318;BME280;56457;52.190;4.440;2023-03-12T02:16:28;100990.03;;;3.72;100.00
69318;BME280;56457;52.190;4.440;2023-03-12T02:17:28;100983.16;;;3.74;100.00
69318;BME280;56457;52.190;4.440;2023-03-12T02:18:29;100994.28;;;3.69;100.00
69318;BME280;56457;52.190;4.440;2023-03-12T02:21:35;100984.03;;;3.75;100.00
69318;BME280;56457;52.190;4.440;2023-03-12T02:22:38;100978.84;;;3.75;100.00
69318;BME280;56457;52.190;4.440;2023-03-12T02:23:42;100980.56;;;3.74;100.00
69318;BME280;56457;52.190;4.440;2023-03-12T02:25:45;100976.16;;;3.70;100.00
69318;BME280;56457;52.190;4.440;2023-03-12T02:26:46;100982.22;;;3.72;100.00
69318;BME280;56457;52.190;4.440;2023-03-12T02:27:48;100975.28;;;3.71;100.00
69318;BME280;56457;52.190;4.440;2023-03-12T02:28:49;100979.59;;;3.69;100.00
69318;BME280;56457;52.190;4.440;2023-03-12T02:29:49;100978.78;;;3.72;100.00
69318;BME280;56457;52.190;4.440;2023-03-12T02:30:50;100970.03;;;3.67;100.00
69318;BME280;56457;52.190;4.440;2023-03-12T02:31:52;100979.63;;;3.71;100.00
69318;BME280;56457;52.190;4.440;2023-03-12T02:32:54;100982.28;;;3.74;100.00
69318;BME280;56457;52.190;4.440;2023-03-12T02:33:55;100967.50;;;3.71;100.00
69318;BME280;56457;52.190;4.440;2023-03-12T02:34:58;100968.38;;;3.72;100.00
69318;BME280;56457;52.190;4.440;2023-03-12T02:35:59;100974.44;;;3.71;100.00
69318;BME280;56457;52.190;4.440;2023-03-12T02:36:59;100976.09;;;3.67;100.00
69318;BME280;56457;52.190;4.440;2023-03-12T02:37:59;100971.81;;;3.69;100.00
69318;BME280;56457;52.190;4.440;2023-03-12T02:39:00;100969.25;;;3.72;100.00
69318;BME280;56457;52.190;4.440;2023-03-12T02:40:12;100975.28;;;3.70;100.00
69318;BME280;56457;52.190;4.440;2023-03-12T02:41:16;100970.97;;;3.72;100.00
69318;BME280;56457;52.190;4.440;2023-03-12T02:42:17;100967.50;;;3.71;100.00
69318;BME280;56457;52.190;4.440;2023-03-12T02:43:19;100977.94;;;3.73;100.00
69318;BME280;56457;52.190;4.440;2023-03-12T02:44:21;100968.34;;;3.69;100.00
69318;BME280;56457;52.190;4.440;2023-03-12T02:45:23;100964.00;;;3.68;100.00
69318;BME280;56457;52.190;4.440;2023-03-12T02:46:24;100962.28;;;3.68;100.00
69318;BME280;56457;52.190;4.440;2023-03-12T02:47:24;100963.16;;;3.69;100.00
69318;BME280;56457;52.190;4.440;2023-03-12T02:48:25;100962.16;;;3.64;100.00
69318;BME280;56457;52.190;4.440;2023-03-12T02:49:28;100962.25;;;3.67;100.00
69318;BME280;56457;52.190;4.440;2023-03-12T02:50:29;100952.69;;;3.66;100.00
69318;BME280;56457;52.190;4.440;2023-03-12T02:51:30;100953.56;;;3.66;100.00
69318;BME280;56457;52.190;4.440;2023-03-12T02:52:30;100964.84;;;3.67;100.00
69318;BME280;56457;52.190;4.440;2023-03-12T02:53:34;100953.63;;;3.69;100.00
69318;BME280;56457;52.190;4.440;2023-03-12T02:54:35;100957.94;;;3.67;100.00
69318;BME280;56457;52.190;4.440;2023-03-12T02:55:35;100959.59;;;3.65;100.00
69318;BME280;56457;52.190;4.440;2023-03-12T02:56:35;100957.09;;;3.68;100.00
69318;BME280;56457;52.190;4.440;2023-03-12T02:57:36;100954.47;;;3.67;100.00
69318;BME280;56457;52.190;4.440;2023-03-12T02:58:39;100953.66;;;3.71;100.00
69318;BME280;56457;52.190;4.440;2023-03-12T02:59:39;100957.13;;;3.71;100.00
69318;BME280;56457;52.190;4.440;2023-03-12T03:00:39;100956.22;;;3.68;100.00
69318;BME280;56457;52.190;4.440;2023-03-12T03:01:40;100951.91;;;3.68;100.00
69318;BME280;56457;52.190;4.440;2023-03-12T03:02:40;100954.53;;;3.71;100.00
69318;BME280;56457;52.190;4.440;2023-03-12T03:03:41;100952.00;;;3.73;100.00
69318;BME280;56457;52.190;4.440;2023-03-12T03:04:41;100947.69;;;3.73;100.00
69318;BME280;56457;52.190;4.440;2023-03-12T03:05:42;100938.13;;;3.72;100.00
69318;BME280;56457;52.190;4.440;2023-03-12T03:06:42;100946.75;;;3.71;100.00
69318;BME280;56457;52.190;4.440;2023-03-12T03:07:42;100935.59;;;3.74;100.00
69318;BME280;56457;52.190;4.440;2023-03-12T03:08:43;100932.13;;;3.75;100.00
69318;BME280;56457;52.190;4.440;2023-03-12T03:09:43;100933.84;;;3.73;100.00
69318;BME280;56457;52.190;4.440;2023-03-12T03:10:43;100935.59;;;3.75;100.00
69318;BME280;56457;52.190;4.440;2023-03-12T03:11:44;100931.31;;;3.77;100.00
69318;BME280;56457;52.190;4.440;2023-03-12T03:12:44;100936.47;;;3.76;100.00
69318;BME280;56457;52.190;4.440;2023-03-12T03:13:44;100934.78;;;3.78;100.00
69318;BME280;56457;52.190;4.440;2023-03-12T03:14:44;100939.19;;;3.81;100.00
69318;BME280;56457;52.190;4.440;2023-03-12T03:15:45;100927.06;;;3.80;100.00
69318;BME280;56457;52.190;4.440;2023-03-12T03:16:45;100930.47;;;3.78;100.00
69318;BME280;56457;52.190;4.440;2023-03-12T03:17:45;100924.41;;;3.78;100.00
69318;BME280;56457;52.190;4.440;2023-03-12T03:18:46;100921.00;;;3.81;100.00
69318;BME280;56457;52.190;4.440;2023-03-12T03:19:46;100927.88;;;3.78;100.00
69318;BME280;56457;52.190;4.440;2023-03-12T03:20:53;100919.16;;;3.75;100.00
69318;BME280;56457;52.190;4.440;2023-03-12T03:21:53;100918.34;;;3.77;100.00
69318;BME280;56457;52.190;4.440;2023-03-12T03:22:53;100914.00;;;3.76;100.00
69318;BME280;56457;52.190;4.440;2023-03-12T03:23:54;100909.56;;;3.72;100.00
69318;BME280;56457;52.190;4.440;2023-03-12T03:24:54;100908.81;;;3.76;100.00
69318;BME280;56457;52.190;4.440;2023-03-12T03:25:54;100920.09;;;3.78;100.00
69318;BME280;56457;52.190;4.440;2023-03-12T03:26:55;100914.09;;;3.80;100.00
69318;BME280;56457;52.190;4.440;2023-03-12T03:27:55;100909.72;;;3.78;100.00
69318;BME280;56457;52.190;4.440;2023-03-12T03:28:55;100905.41;;;3.79;100.00
69318;BME280;56457;52.190;4.440;2023-03-12T03:29:55;100904.50;;;3.78;100.00
69318;BME280;56457;52.190;4.440;2023-03-12T03:30:57;100901.03;;;3.76;100.00
69318;BME280;56457;52.190;4.440;2023-03-12T03:32:00;100892.38;;;3.77;100.00
69318;BME280;56457;52.190;4.440;2023-03-12T03:33:00;100904.56;;;3.80;100.00
69318;BME280;56457;52.190;4.440;2023-03-12T03:34:00;100902.84;;;3.81;100.00
69318;BME280;56457;52.190;4.440;2023-03-12T03:35:01;100908.03;;;3.81;100.00
69318;BME280;56457;52.190;4.440;2023-03-12T03:36:01;100901.13;;;3.81;100.00
69318;BME280;56457;52.190;4.440;2023-03-12T03:37:02;100903.84;;;3.87;100.00
69318;BME280;56457;52.190;4.440;2023-03-12T03:38:02;100902.97;;;3.87;100.00
69318;BME280;56457;52.190;4.440;2023-03-12T03:39:03;100901.19;;;3.84;100.00
69318;BME280;56457;52.190;4.440;2023-03-12T03:40:04;100893.38;;;3.83;100.00
69318;BME280;56457;52.190;4.440;2023-03-12T03:41:04;100891.63;;;3.82;100.00
69318;BME280;56457;52.190;4.440;2023-03-12T03:42:05;100894.19;;;3.80;100.00
69318;BME280;56457;52.190;4.440;2023-03-12T03:43:05;100882.13;;;3.82;100.00
69318;BME280;56457;52.190;4.440;2023-03-12T03:44:05;100883.84;;;3.82;100.00
69318;BME280;56457;52.190;4.440;2023-03-12T03:45:08;100881.25;;;3.82;100.00
69318;BME280;56457;52.190;4.440;2023-03-12T03:46:10;100878.75;;;3.86;100.00
69318;BME280;56457;52.190;4.440;2023-03-12T03:47:10;100884.81;;;3.87;100.00
69318;BME280;56457;52.190;4.440;2023-03-12T03:48:11;100878.69;;;3.85;100.00
69318;BME280;56457;52.190;4.440;2023-03-12T03:49:11;100870.91;;;3.85;100.00
69318;BME280;56457;52.190;4.440;2023-03-12T03:50:12;100875.22;;;3.84;100.00
69318;BME280;56457;52.190;4.440;2023-03-12T03:51:12;100868.31;;;3.85;100.00
69318;BME280;56457;52.190;4.440;2023-03-12T03:52:12;100870.09;;;3.86;100.00
69318;BME280;56457;52.190;4.440;2023-03-12T03:53:13;100860.53;;;3.85;100.00
69318;BME280;56457;52.190;4.440;2023-03-12T03:54:13;100860.53;;;3.85;100.00
69318;BME280;56457;52.190;4.440;2023-03-12T03:55:13;100862.25;;;3.84;100.00
69318;BME280;56457;52.190;4.440;2023-03-12T03:56:14;100860.47;;;3.82;100.00
69318;BME280;56457;52.190;4.440;2023-03-12T03:57:15;100864.69;;;3.76;100.00
69318;BME280;56457;52.190;4.440;2023-03-12T03:58:15;100857.75;;;3.74;100.00
69318;BME280;56457;52.190;4.440;2023-03-12T03:59:15;100861.97;;;3.70;100.00
69318;BME280;56457;52.190;4.440;2023-03-12T04:00:16;100862.75;;;3.66;100.00
69318;BME280;56457;52.190;4.440;2023-03-12T04:01:17;100868.88;;;3.68;100.00
69318;BME280;56457;52.190;4.440;2023-03-12T04:02:18;100861.06;;;3.67;100.00
69318;BME280;56457;52.190;4.440;2023-03-12T04:03:18;100866.25;;;3.67;100.00
69318;BME280;56457;52.190;4.440;2023-03-12T04:04:18;100869.66;;;3.66;100.00
69318;BME280;56457;52.190;4.440;2023-03-12T04:05:18;100863.59;;;3.65;100.00
69318;BME280;56457;52.190;4.440;2023-03-12T04:06:19;100867.88;;;3.63;100.00
69318;BME280;56457;52.190;4.440;2023-03-12T04:07:20;100860.94;;;3.61;100.00
69318;BME280;56457;52.190;4.440;2023-03-12T04:08:20;100858.28;;;3.59;100.00
69318;BME280;56457;52.190;4.440;2023-03-12T04:09:20;100863.41;;;3.56;100.00
69318;BME280;56457;52.190;4.440;2023-03-12T04:10:21;100851.16;;;3.49;100.00
69318;BME280;56457;52.190;4.440;2023-03-12T04:11:22;100854.63;;;3.48;100.00
69318;BME280;56457;52.190;4.440;2023-03-12T04:12:23;100856.28;;;3.47;100.00
69318;BME280;56457;52.190;4.440;2023-03-12T04:13:25;100859.78;;;3.48;100.00
69318;BME280;56457;52.190;4.440;2023-03-12T04:14:25;100857.13;;;3.45;100.00
69318;BME280;56457;52.190;4.440;2023-03-12T04:15:25;100851.09;;;3.46;100.00
69318;BME280;56457;52.190;4.440;2023-03-12T04:16:26;100858.88;;;3.46;100.00
69318;BME280;56457;52.190;4.440;2023-03-12T04:17:26;100864.06;;;3.46;100.00
69318;BME280;56457;52.190;4.440;2023-03-12T04:18:27;100867.47;;;3.43;100.00
69318;BME280;56457;52.190;4.440;2023-03-12T04:19:27;100868.34;;;3.44;100.00
69318;BME280;56457;52.190;4.440;2023-03-12T04:20:27;100864.03;;;3.44;100.00
69318;BME280;56457;52.190;4.440;2023-03-12T04:21:27;100857.88;;;3.39;100.00
69318;BME280;56457;52.190;4.440;2023-03-12T04:22:28;100859.66;;;3.42;100.00
69318;BME280;56457;52.190;4.440;2023-03-12T04:23:28;100860.47;;;3.41;100.00
69318;BME280;56457;52.190;4.440;2023-03-12T04:24:29;100845.78;;;3.40;100.00
69318;BME280;56457;52.190;4.440;2023-03-12T04:25:29;100844.91;;;3.39;100.00
69318;BME280;56457;52.190;4.440;2023-03-12T04:26:29;100842.28;;;3.38;100.00
69318;BME280;56457;52.190;4.440;2023-03-12T04:27:30;100824.91;;;3.34;100.00
69318;BME280;56457;52.190;4.440;2023-03-12T04:28:30;100830.06;;;3.34;100.00
69318;BME280;56457;52.190;4.440;2023-03-12T04:29:30;100831.81;;;3.35;100.00
69318;BME280;56457;52.190;4.440;2023-03-12T04:30:30;100832.75;;;3.37;100.00
69318;BME280;56457;52.190;4.440;2023-03-12T04:31:31;100827.47;;;3.34;100.00
69318;BME280;56457;52.190;4.440;2023-03-12T04:32:31;100824.72;;;3.26;100.00
69318;BME280;56457;52.190;4.440;2023-03-12T04:33:33;100821.41;;;3.32;100.00
69318;BME280;56457;52.190;4.440;2023-03-12T04:34:33;100814.47;;;3.31;100.00
69318;BME280;56457;52.190;4.440;2023-03-12T04:35:34;100815.31;;;3.30;100.00
69318;BME280;56457;52.190;4.440;2023-03-12T04:36:34;100805.75;;;3.27;100.00
69318;BME280;56457;52.190;4.440;2023-03-12T04:37:34;100808.41;;;3.30;100.00
69318;BME280;56457;52.190;4.440;2023-03-12T04:38:35;100814.47;;;3.31;100.00
69318;BME280;56457;52.190;4.440;2023-03-12T04:39:35;100800.66;;;3.32;100.00
69318;BME280;56457;52.190;4.440;2023-03-12T04:40:35;100815.34;;;3.31;100.00
69318;BME280;56457;52.190;4.440;2023-03-12T04:41:36;100812.72;;;3.30;100.00
69318;BME280;56457;52.190;4.440;2023-03-12T04:42:37;100808.41;;;3.30;100.00
69318;BME280;56457;52.190;4.440;2023-03-12T04:43:37;100807.53;;;3.30;100.00
69318;BME280;56457;52.190;4.440;2023-03-12T04:44:37;100811.06;;;3.35;100.00
69318;BME280;56457;52.190;4.440;2023-03-12T04:45:39;100798.19;;;3.38;100.00
69318;BME280;56457;52.190;4.440;2023-03-12T04:46:41;100800.56;;;3.29;100.00
69318;BME280;56457;52.190;4.440;2023-03-12T04:47:42;100805.88;;;3.33;100.00
69318;BME280;56457;52.190;4.440;2023-03-12T04:48:42;100806.72;;;3.32;100.00
69318;BME280;56457;52.190;4.440;2023-03-12T04:49:43;100810.22;;;3.34;100.00
69318;BME280;56457;52.190;4.440;2023-03-12T04:50:43;100808.47;;;3.35;100.00
69318;BME280;56457;52.190;4.440;2023-03-12T04:51:43;100812.06;;;3.40;100.00
69318;BME280;56457;52.190;4.440;2023-03-12T04:52:43;100817.13;;;3.34;100.00
69318;BME280;56457;52.190;4.440;2023-03-12T04:53:44;100825.84;;;3.37;100.00
69318;BME280;56457;52.190;4.440;2023-03-12T04:54:44;100819.00;;;3.41;100.00
69318;BME280;56457;52.190;4.440;2023-03-12T04:55:44;100821.50;;;3.36;100.00
69318;BME280;56457;52.190;4.440;2023-03-12T04:56:45;100818.09;;;3.39;100.00
69318;BME280;56457;52.190;4.440;2023-03-12T04:57:45;100828.41;;;3.36;100.00
69318;BME280;56457;52.190;4.440;2023-03-12T04:58:46;100825.81;;;3.36;100.00
69318;BME280;56457;52.190;4.440;2023-03-12T04:59:46;100829.34;;;3.39;100.00
69318;BME280;56457;52.190;4.440;2023-03-12T05:00:47;100824.03;;;3.33;100.00
69318;BME280;56457;52.190;4.440;2023-03-12T05:01:47;100827.47;;;3.34;100.00
69318;BME280;56457;52.190;4.440;2023-03-12T05:02:47;100824.91;;;3.34;100.00
69318;BME280;56457;52.190;4.440;2023-03-12T05:03:48;100819.66;;;3.31;100.00
69318;BME280;56457;52.190;4.440;2023-03-12T05:04:48;100823.00;;;3.25;100.00
69318;BME280;56457;52.190;4.440;2023-03-12T05:05:48;100823.88;;;3.26;100.00
69318;BME280;56457;52.190;4.440;2023-03-12T05:06:49;100813.41;;;3.22;100.00
69318;BME280;56457;52.190;4.440;2023-03-12T05:07:49;100816.97;;;3.28;100.00
69318;BME280;56457;52.190;4.440;2023-03-12T05:08:49;100813.50;;;3.27;100.00
69318;BME280;56457;52.190;4.440;2023-03-12T05:09:50;100821.25;;;3.24;100.00
69318;BME280;56457;52.190;4.440;2023-03-12T05:10:50;100816.00;;;3.22;100.00
69318;BME280;56457;52.190;4.440;2023-03-12T05:11:50;100820.28;;;3.20;100.00
69318;BME280;56457;52.190;4.440;2023-03-12T05:12:51;100822.00;;;3.20;100.00
69318;BME280;56457;52.190;4.440;2023-03-12T05:13:51;100826.34;;;3.21;100.00
69318;BME280;56457;52.190;4.440;2023-03-12T05:14:51;100822.00;;;3.20;100.00
69318;BME280;56457;52.190;4.440;2023-03-12T05:15:52;100824.69;;;3.23;100.00
69318;BME280;56457;52.190;4.440;2023-03-12T05:16:52;100822.84;;;3.17;100.00
69318;BME280;56457;52.190;4.440;2023-03-12T05:17:52;100826.94;;;3.08;100.00
69318;BME280;56457;52.190;4.440;2023-03-12T05:18:52;100820.91;;;3.10;100.00
69318;BME280;56457;52.190;4.440;2023-03-12T05:19:53;100821.03;;;3.15;100.00
69318;BME280;56457;52.190;4.440;2023-03-12T05:20:57;100826.19;;;3.13;100.00
69318;BME280;56457;52.190;4.440;2023-03-12T05:21:57;100830.47;;;3.11;100.00
69318;BME280;56457;52.190;4.440;2023-03-12T05:22:58;100823.56;;;3.12;100.00
69318;BME280;56457;52.190;4.440;2023-03-12T05:23:58;100825.22;;;3.10;100.00
69318;BME280;56457;52.190;4.440;2023-03-12T05:24:58;100825.28;;;3.11;100.00
69318;BME280;56457;52.190;4.440;2023-03-12T05:25:59;100823.63;;;3.15;100.00
69318;BME280;56457;52.190;4.440;2023-03-12T05:26:59;100817.56;;;3.14;100.00
69318;BME280;56457;52.190;4.440;2023-03-12T05:27:59;100821.09;;;3.18;100.00
69318;BME280;56457;52.190;4.440;2023-03-12T05:29:00;100820.25;;;3.17;100.00
69318;BME280;56457;52.190;4.440;2023-03-12T05:30:01;100817.66;;;3.17;100.00
69318;BME280;56457;52.190;4.440;2023-03-12T05:31:07;100821.09;;;3.18;100.00
69318;BME280;56457;52.190;4.440;2023-03-12T05:32:08;100810.78;;;3.21;100.00